Terminal Aerodrome Forecast
Issued by NWS

Home | Current Version | Previous Version | Text Only | Print | Product List | Glossary On
Versions: 1 2 3 4 5 6 7 8 9 10 11 12
464
FTUS42 KMLB 210539
TAFISM
TAF
KISM 210539Z 2106/2206 01003KT P6SM FEW040 BKN150 OVC250
     FM211500 08008KT P6SM SCT035 SCT120=

USA.gov is the U.S. government's official web portal to all federal, state and local government web resources and services.